sensor_id;sensor_type;location;lat;lon;timestamp;P1;durP1;ratioP1;P2;durP2;ratioP2
40993;SDS011;26722;43.212;27.932;2023-03-21T00:01:56;32.60;;;8.82;;
40993;SDS011;26722;43.212;27.932;2023-03-21T00:04:22;28.98;;;9.13;;
40993;SDS011;26722;43.212;27.932;2023-03-21T00:06:49;32.53;;;8.38;;
40993;SDS011;26722;43.212;27.932;2023-03-21T00:09:15;30.77;;;9.55;;
40993;SDS011;26722;43.212;27.932;2023-03-21T00:11:41;19.95;;;8.25;;
40993;SDS011;26722;43.212;27.932;2023-03-21T00:14:06;34.63;;;9.27;;
40993;SDS011;26722;43.212;27.932;2023-03-21T00:16:33;42.45;;;9.40;;
40993;SDS011;26722;43.212;27.932;2023-03-21T00:18:59;31.42;;;9.27;;
40993;SDS011;26722;43.212;27.932;2023-03-21T00:21:30;28.92;;;9.13;;
40993;SDS011;26722;43.212;27.932;2023-03-21T00:23:57;38.70;;;9.00;;
40993;SDS011;26722;43.212;27.932;2023-03-21T00:26:24;38.42;;;9.80;;
40993;SDS011;26722;43.212;27.932;2023-03-21T00:28:50;36.47;;;9.60;;
40993;SDS011;26722;43.212;27.932;2023-03-21T00:31:16;32.20;;;8.70;;
40993;SDS011;26722;43.212;27.932;2023-03-21T00:33:42;38.42;;;9.20;;
40993;SDS011;26722;43.212;27.932;2023-03-21T00:36:09;26.17;;;8.88;;
40993;SDS011;26722;43.212;27.932;2023-03-21T00:38:36;32.00;;;8.75;;
40993;SDS011;26722;43.212;27.932;2023-03-21T00:41:05;35.38;;;9.07;;
40993;SDS011;26722;43.212;27.932;2023-03-21T00:43:32;34.50;;;8.25;;
40993;SDS011;26722;43.212;27.932;2023-03-21T00:45:58;29.50;;;8.82;;
40993;SDS011;26722;43.212;27.932;2023-03-21T00:48:24;33.25;;;8.50;;
40993;SDS011;26722;43.212;27.932;2023-03-21T00:50:51;36.70;;;8.45;;
40993;SDS011;26722;43.212;27.932;2023-03-21T00:53:18;33.63;;;9.57;;
40993;SDS011;26722;43.212;27.932;2023-03-21T00:55:44;34.45;;;8.60;;
40993;SDS011;26722;43.212;27.932;2023-03-21T00:58:10;36.50;;;9.57;;
40993;SDS011;26722;43.212;27.932;2023-03-21T01:00:35;44.75;;;9.85;;
40993;SDS011;26722;43.212;27.932;2023-03-21T01:03:01;31.55;;;8.32;;
40993;SDS011;26722;43.212;27.932;2023-03-21T01:05:30;36.13;;;9.68;;
40993;SDS011;26722;43.212;27.932;2023-03-21T01:08:16;24.88;;;7.88;;
40993;SDS011;26722;43.212;27.932;2023-03-21T01:10:44;30.45;;;8.65;;
40993;SDS011;26722;43.212;27.932;2023-03-21T01:13:11;32.17;;;8.48;;
40993;SDS011;26722;43.212;27.932;2023-03-21T01:15:42;31.90;;;8.63;;
40993;SDS011;26722;43.212;27.932;2023-03-21T01:18:10;28.02;;;8.38;;
40993;SDS011;26722;43.212;27.932;2023-03-21T01:20:36;37.38;;;8.35;;
40993;SDS011;26722;43.212;27.932;2023-03-21T01:23:04;38.60;;;8.38;;
40993;SDS011;26722;43.212;27.932;2023-03-21T01:25:29;34.72;;;8.70;;
40993;SDS011;26722;43.212;27.932;2023-03-21T01:27:55;27.38;;;8.25;;
40993;SDS011;26722;43.212;27.932;2023-03-21T01:30:20;31.65;;;8.57;;
40993;SDS011;26722;43.212;27.932;2023-03-21T01:32:46;25.42;;;8.60;;
40993;SDS011;26722;43.212;27.932;2023-03-21T01:35:12;30.33;;;8.98;;
40993;SDS011;26722;43.212;27.932;2023-03-21T01:37:37;31.83;;;9.23;;
40993;SDS011;26722;43.212;27.932;2023-03-21T01:40:03;27.70;;;8.68;;
40993;SDS011;26722;43.212;27.932;2023-03-21T01:42:29;36.30;;;10.02;;
40993;SDS011;26722;43.212;27.932;2023-03-21T01:45:00;33.70;;;9.30;;
40993;SDS011;26722;43.212;27.932;2023-03-21T01:47:28;26.15;;;8.93;;
40993;SDS011;26722;43.212;27.932;2023-03-21T01:49:55;32.13;;;9.38;;
40993;SDS011;26722;43.212;27.932;2023-03-21T01:52:33;35.25;;;9.20;;
40993;SDS011;26722;43.212;27.932;2023-03-21T01:55:03;33.33;;;8.90;;
40993;SDS011;26722;43.212;27.932;2023-03-21T01:57:34;37.13;;;9.10;;
40993;SDS011;26722;43.212;27.932;2023-03-21T02:00:05;38.03;;;9.30;;
40993;SDS011;26722;43.212;27.932;2023-03-21T02:02:36;28.02;;;9.73;;
40993;SDS011;26722;43.212;27.932;2023-03-21T02:05:21;34.58;;;8.88;;
40993;SDS011;26722;43.212;27.932;2023-03-21T02:07:53;35.90;;;9.45;;
40993;SDS011;26722;43.212;27.932;2023-03-21T02:10:19;33.25;;;8.77;;
40993;SDS011;26722;43.212;27.932;2023-03-21T02:12:45;33.45;;;9.65;;
40993;SDS011;26722;43.212;27.932;2023-03-21T02:15:11;32.70;;;9.27;;
40993;SDS011;26722;43.212;27.932;2023-03-21T02:28:28;24.55;;;8.85;;
40993;SDS011;26722;43.212;27.932;2023-03-21T02:38:05;27.45;;;9.13;;
40993;SDS011;26722;43.212;27.932;2023-03-21T02:41:00;26.98;;;8.95;;
40993;SDS011;26722;43.212;27.932;2023-03-21T02:46:14;28.20;;;9.23;;
40993;SDS011;26722;43.212;27.932;2023-03-21T02:48:58;38.30;;;9.20;;
40993;SDS011;26722;43.212;27.932;2023-03-21T02:51:30;20.95;;;8.85;;
40993;SDS011;26722;43.212;27.932;2023-03-21T02:53:59;28.48;;;8.60;;
40993;SDS011;26722;43.212;27.932;2023-03-21T02:56:28;33.53;;;9.75;;
40993;SDS011;26722;43.212;27.932;2023-03-21T02:58:55;33.00;;;9.40;;
40993;SDS011;26722;43.212;27.932;2023-03-21T03:01:21;32.20;;;9.48;;
40993;SDS011;26722;43.212;27.932;2023-03-21T03:03:50;27.55;;;8.65;;
40993;SDS011;26722;43.212;27.932;2023-03-21T03:06:17;27.27;;;9.30;;
40993;SDS011;26722;43.212;27.932;2023-03-21T03:11:32;23.63;;;8.82;;
40993;SDS011;26722;43.212;27.932;2023-03-21T03:22:50;37.28;;;8.88;;
40993;SDS011;26722;43.212;27.932;2023-03-21T03:25:25;32.05;;;9.70;;
40993;SDS011;26722;43.212;27.932;2023-03-21T03:27:56;32.20;;;9.38;;
40993;SDS011;26722;43.212;27.932;2023-03-21T03:30:24;23.30;;;8.25;;
40993;SDS011;26722;43.212;27.932;2023-03-21T03:32:56;25.30;;;8.65;;
40993;SDS011;26722;43.212;27.932;2023-03-21T03:35:26;28.42;;;8.68;;
40993;SDS011;26722;43.212;27.932;2023-03-21T03:37:53;22.60;;;9.00;;
40993;SDS011;26722;43.212;27.932;2023-03-21T03:40:29;23.85;;;10.15;;
40993;SDS011;26722;43.212;27.932;2023-03-21T03:43:03;26.83;;;9.73;;
40993;SDS011;26722;43.212;27.932;2023-03-21T03:45:33;22.15;;;9.15;;
40993;SDS011;26722;43.212;27.932;2023-03-21T03:48:13;24.20;;;9.23;;
40993;SDS011;26722;43.212;27.932;2023-03-21T03:53:36;28.75;;;10.23;;
40993;SDS011;26722;43.212;27.932;2023-03-21T03:56:08;25.80;;;9.23;;
40993;SDS011;26722;43.212;27.932;2023-03-21T03:58:36;25.67;;;9.48;;
40993;SDS011;26722;43.212;27.932;2023-03-21T04:01:04;25.65;;;10.48;;
40993;SDS011;26722;43.212;27.932;2023-03-21T04:03:31;22.52;;;9.05;;
40993;SDS011;26722;43.212;27.932;2023-03-21T04:06:00;28.45;;;9.18;;
40993;SDS011;26722;43.212;27.932;2023-03-21T04:08:25;32.78;;;10.07;;
40993;SDS011;26722;43.212;27.932;2023-03-21T04:10:51;29.05;;;10.68;;
40993;SDS011;26722;43.212;27.932;2023-03-21T04:13:16;28.45;;;9.70;;
40993;SDS011;26722;43.212;27.932;2023-03-21T04:15:42;28.92;;;10.60;;
40993;SDS011;26722;43.212;27.932;2023-03-21T04:18:09;26.70;;;9.88;;
40993;SDS011;26722;43.212;27.932;2023-03-21T04:20:35;24.98;;;9.95;;
40993;SDS011;26722;43.212;27.932;2023-03-21T04:23:00;34.13;;;9.65;;
40993;SDS011;26722;43.212;27.932;2023-03-21T04:25:25;27.27;;;9.82;;
40993;SDS011;26722;43.212;27.932;2023-03-21T04:27:52;30.38;;;11.32;;
40993;SDS011;26722;43.212;27.932;2023-03-21T04:30:19;30.80;;;10.70;;
40993;SDS011;26722;43.212;27.932;2023-03-21T04:32:49;26.17;;;11.75;;
40993;SDS011;26722;43.212;27.932;2023-03-21T04:35:18;30.98;;;11.90;;
40993;SDS011;26722;43.212;27.932;2023-03-21T04:37:44;29.15;;;11.82;;
40993;SDS011;26722;43.212;27.932;2023-03-21T04:40:10;33.38;;;12.95;;
40993;SDS011;26722;43.212;27.932;2023-03-21T04:42:36;26.85;;;12.32;;
40993;SDS011;26722;43.212;27.932;2023-03-21T04:45:02;30.23;;;13.20;;
40993;SDS011;26722;43.212;27.932;2023-03-21T04:47:28;29.88;;;13.13;;
40993;SDS011;26722;43.212;27.932;2023-03-21T04:49:54;29.02;;;12.55;;
40993;SDS011;26722;43.212;27.932;2023-03-21T04:52:21;37.67;;;13.25;;
40993;SDS011;26722;43.212;27.932;2023-03-21T04:54:47;29.30;;;12.27;;
40993;SDS011;26722;43.212;27.932;2023-03-21T04:57:12;30.90;;;12.93;;
40993;SDS011;26722;43.212;27.932;2023-03-21T04:59:38;26.58;;;12.45;;
40993;SDS011;26722;43.212;27.932;2023-03-21T05:02:04;32.70;;;12.70;;
40993;SDS011;26722;43.212;27.932;2023-03-21T05:04:30;27.45;;;12.77;;
40993;SDS011;26722;43.212;27.932;2023-03-21T05:06:56;32.70;;;12.35;;
40993;SDS011;26722;43.212;27.932;2023-03-21T05:09:22;31.88;;;12.88;;
40993;SDS011;26722;43.212;27.932;2023-03-21T05:11:47;35.97;;;12.73;;
40993;SDS011;26722;43.212;27.932;2023-03-21T05:14:15;36.85;;;13.02;;
40993;SDS011;26722;43.212;27.932;2023-03-21T05:16:43;34.95;;;13.40;;
40993;SDS011;26722;43.212;27.932;2023-03-21T05:19:12;37.72;;;13.10;;
40993;SDS011;26722;43.212;27.932;2023-03-21T05:21:39;40.53;;;13.23;;
40993;SDS011;26722;43.212;27.932;2023-03-21T05:24:11;31.45;;;12.38;;
40993;SDS011;26722;43.212;27.932;2023-03-21T05:26:39;37.78;;;13.00;;
40993;SDS011;26722;43.212;27.932;2023-03-21T05:29:06;41.10;;;13.18;;
40993;SDS011;26722;43.212;27.932;2023-03-21T05:31:32;35.15;;;13.75;;
40993;SDS011;26722;43.212;27.932;2023-03-21T05:33:57;35.78;;;13.43;;
40993;SDS011;26722;43.212;27.932;2023-03-21T05:36:23;37.53;;;13.88;;
40993;SDS011;26722;43.212;27.932;2023-03-21T05:38:48;32.17;;;13.95;;
40993;SDS011;26722;43.212;27.932;2023-03-21T05:41:15;40.17;;;13.90;;
40993;SDS011;26722;43.212;27.932;2023-03-21T05:43:41;35.63;;;14.68;;
40993;SDS011;26722;43.212;27.932;2023-03-21T05:46:07;44.55;;;15.77;;
40993;SDS011;26722;43.212;27.932;2023-03-21T05:48:33;32.08;;;15.70;;
40993;SDS011;26722;43.212;27.932;2023-03-21T05:50:59;37.03;;;15.63;;
40993;SDS011;26722;43.212;27.932;2023-03-21T05:53:25;32.63;;;15.35;;
40993;SDS011;26722;43.212;27.932;2023-03-21T05:55:51;48.33;;;16.75;;
40993;SDS011;26722;43.212;27.932;2023-03-21T05:58:16;42.92;;;16.70;;
40993;SDS011;26722;43.212;27.932;2023-03-21T06:00:42;42.08;;;16.98;;
40993;SDS011;26722;43.212;27.932;2023-03-21T06:03:08;49.28;;;16.20;;
40993;SDS011;26722;43.212;27.932;2023-03-21T06:05:33;46.35;;;17.77;;
40993;SDS011;26722;43.212;27.932;2023-03-21T06:07:58;50.40;;;16.17;;
40993;SDS011;26722;43.212;27.932;2023-03-21T06:10:24;41.28;;;16.35;;
40993;SDS011;26722;43.212;27.932;2023-03-21T06:12:49;44.08;;;17.45;;
40993;SDS011;26722;43.212;27.932;2023-03-21T06:15:15;36.50;;;17.70;;
40993;SDS011;26722;43.212;27.932;2023-03-21T06:17:40;40.17;;;18.27;;
40993;SDS011;26722;43.212;27.932;2023-03-21T06:20:06;42.08;;;17.65;;
40993;SDS011;26722;43.212;27.932;2023-03-21T06:22:32;36.00;;;17.02;;
40993;SDS011;26722;43.212;27.932;2023-03-21T06:24:59;50.58;;;18.13;;
40993;SDS011;26722;43.212;27.932;2023-03-21T06:27:24;37.67;;;18.63;;
40993;SDS011;26722;43.212;27.932;2023-03-21T06:29:50;46.40;;;18.98;;
40993;SDS011;26722;43.212;27.932;2023-03-21T06:32:16;45.38;;;19.38;;
40993;SDS011;26722;43.212;27.932;2023-03-21T06:34:42;43.35;;;19.75;;
40993;SDS011;26722;43.212;27.932;2023-03-21T06:37:07;42.95;;;20.67;;
40993;SDS011;26722;43.212;27.932;2023-03-21T06:39:33;46.22;;;20.55;;
40993;SDS011;26722;43.212;27.932;2023-03-21T06:41:59;55.22;;;21.55;;
40993;SDS011;26722;43.212;27.932;2023-03-21T06:44:25;43.30;;;19.33;;
40993;SDS011;26722;43.212;27.932;2023-03-21T06:46:51;45.45;;;18.23;;
40993;SDS011;26722;43.212;27.932;2023-03-21T06:49:17;41.97;;;17.85;;
40993;SDS011;26722;43.212;27.932;2023-03-21T06:51:44;50.78;;;19.42;;
40993;SDS011;26722;43.212;27.932;2023-03-21T06:54:09;49.75;;;19.25;;
40993;SDS011;26722;43.212;27.932;2023-03-21T06:56:35;49.55;;;18.23;;
40993;SDS011;26722;43.212;27.932;2023-03-21T06:59:01;42.72;;;17.42;;
40993;SDS011;26722;43.212;27.932;2023-03-21T07:01:27;52.33;;;18.83;;
40993;SDS011;26722;43.212;27.932;2023-03-21T07:03:55;40.33;;;17.90;;
40993;SDS011;26722;43.212;27.932;2023-03-21T07:06:22;39.22;;;16.85;;
40993;SDS011;26722;43.212;27.932;2023-03-21T07:08:50;43.17;;;17.15;;
40993;SDS011;26722;43.212;27.932;2023-03-21T07:11:16;37.22;;;15.90;;
40993;SDS011;26722;43.212;27.932;2023-03-21T07:13:42;38.28;;;15.70;;
40993;SDS011;26722;43.212;27.932;2023-03-21T07:16:08;37.97;;;15.10;;
40993;SDS011;26722;43.212;27.932;2023-03-21T07:18:34;37.70;;;16.17;;
40993;SDS011;26722;43.212;27.932;2023-03-21T07:21:00;33.33;;;14.85;;
40993;SDS011;26722;43.212;27.932;2023-03-21T07:23:25;37.47;;;16.05;;
40993;SDS011;26722;43.212;27.932;2023-03-21T07:25:52;42.95;;;16.52;;
40993;SDS011;26722;43.212;27.932;2023-03-21T07:28:18;43.90;;;16.42;;
40993;SDS011;26722;43.212;27.932;2023-03-21T07:30:44;43.05;;;17.00;;
40993;SDS011;26722;43.212;27.932;2023-03-21T07:33:15;44.42;;;17.25;;
40993;SDS011;26722;43.212;27.932;2023-03-21T07:35:41;44.20;;;17.45;;
40993;SDS011;26722;43.212;27.932;2023-03-21T07:38:06;47.92;;;18.80;;
40993;SDS011;26722;43.212;27.932;2023-03-21T07:40:32;46.65;;;19.00;;
40993;SDS011;26722;43.212;27.932;2023-03-21T07:42:57;51.13;;;20.35;;
40993;SDS011;26722;43.212;27.932;2023-03-21T07:45:23;41.58;;;18.70;;
40993;SDS011;26722;43.212;27.932;2023-03-21T07:47:51;44.60;;;18.63;;
40993;SDS011;26722;43.212;27.932;2023-03-21T07:50:17;40.95;;;18.35;;
40993;SDS011;26722;43.212;27.932;2023-03-21T07:52:42;37.00;;;18.35;;
40993;SDS011;26722;43.212;27.932;2023-03-21T07:55:08;44.72;;;18.60;;
40993;SDS011;26722;43.212;27.932;2023-03-21T07:57:34;52.03;;;19.75;;
40993;SDS011;26722;43.212;27.932;2023-03-21T08:00:00;54.28;;;24.10;;
40993;SDS011;26722;43.212;27.932;2023-03-21T08:02:26;47.63;;;21.95;;
40993;SDS011;26722;43.212;27.932;2023-03-21T08:04:51;48.42;;;20.00;;
40993;SDS011;26722;43.212;27.932;2023-03-21T08:07:17;51.28;;;20.40;;
40993;SDS011;26722;43.212;27.932;2023-03-21T08:09:43;53.40;;;19.63;;
40993;SDS011;26722;43.212;27.932;2023-03-21T08:12:08;49.70;;;20.10;;
40993;SDS011;26722;43.212;27.932;2023-03-21T08:14:35;47.83;;;20.88;;
40993;SDS011;26722;43.212;27.932;2023-03-21T08:17:01;60.95;;;20.90;;
40993;SDS011;26722;43.212;27.932;2023-03-21T08:19:30;46.60;;;21.20;;
40993;SDS011;26722;43.212;27.932;2023-03-21T08:21:56;61.85;;;21.48;;
40993;SDS011;26722;43.212;27.932;2023-03-21T08:24:25;44.72;;;20.55;;
40993;SDS011;26722;43.212;27.932;2023-03-21T08:26:52;51.22;;;21.73;;
40993;SDS011;26722;43.212;27.932;2023-03-21T08:29:17;52.95;;;22.85;;
40993;SDS011;26722;43.212;27.932;2023-03-21T08:31:43;56.28;;;23.23;;
40993;SDS011;26722;43.212;27.932;2023-03-21T08:34:08;53.03;;;22.15;;
40993;SDS011;26722;43.212;27.932;2023-03-21T08:36:35;52.22;;;22.17;;
40993;SDS011;26722;43.212;27.932;2023-03-21T08:39:02;52.67;;;23.88;;
40993;SDS011;26722;43.212;27.932;2023-03-21T08:41:33;50.13;;;21.58;;
40993;SDS011;26722;43.212;27.932;2023-03-21T08:44:01;50.28;;;21.55;;
40993;SDS011;26722;43.212;27.932;2023-03-21T08:46:27;46.35;;;22.27;;
40993;SDS011;26722;43.212;27.932;2023-03-21T08:48:53;54.55;;;23.13;;
40993;SDS011;26722;43.212;27.932;2023-03-21T08:51:20;44.70;;;22.55;;
40993;SDS011;26722;43.212;27.932;2023-03-21T08:53:46;48.00;;;22.15;;
40993;SDS011;26722;43.212;27.932;2023-03-21T08:56:13;48.33;;;20.35;;
40993;SDS011;26722;43.212;27.932;2023-03-21T08:58:38;49.53;;;20.67;;
40993;SDS011;26722;43.212;27.932;2023-03-21T09:01:04;42.28;;;20.55;;
40993;SDS011;26722;43.212;27.932;2023-03-21T09:03:35;52.88;;;20.05;;
40993;SDS011;26722;43.212;27.932;2023-03-21T09:06:02;56.03;;;20.50;;
40993;SDS011;26722;43.212;27.932;2023-03-21T09:08:28;55.30;;;22.58;;
40993;SDS011;26722;43.212;27.932;2023-03-21T09:10:53;44.40;;;17.95;;
40993;SDS011;26722;43.212;27.932;2023-03-21T09:13:20;49.05;;;18.45;;
40993;SDS011;26722;43.212;27.932;2023-03-21T09:15:46;44.75;;;18.92;;
40993;SDS011;26722;43.212;27.932;2023-03-21T09:18:13;54.13;;;18.35;;
40993;SDS011;26722;43.212;27.932;2023-03-21T09:20:43;46.58;;;19.58;;
40993;SDS011;26722;43.212;27.932;2023-03-21T09:23:11;41.58;;;18.60;;
40993;SDS011;26722;43.212;27.932;2023-03-21T09:25:38;42.05;;;17.88;;
40993;SDS011;26722;43.212;27.932;2023-03-21T09:28:04;49.00;;;19.77;;
40993;SDS011;26722;43.212;27.932;2023-03-21T09:30:31;48.58;;;19.70;;
40993;SDS011;26722;43.212;27.932;2023-03-21T09:32:58;42.17;;;19.15;;
40993;SDS011;26722;43.212;27.932;2023-03-21T09:35:25;44.08;;;19.92;;
40993;SDS011;26722;43.212;27.932;2023-03-21T09:37:52;51.88;;;23.70;;
40993;SDS011;26722;43.212;27.932;2023-03-21T09:42:47;47.53;;;20.55;;
40993;SDS011;26722;43.212;27.932;2023-03-21T09:48:02;48.78;;;22.42;;
40993;SDS011;26722;43.212;27.932;2023-03-21T09:50:32;54.08;;;21.50;;
40993;SDS011;26722;43.212;27.932;2023-03-21T09:53:16;53.78;;;23.27;;
40993;SDS011;26722;43.212;27.932;2023-03-21T09:55:47;48.67;;;23.08;;
40993;SDS011;26722;43.212;27.932;2023-03-21T10:01:19;50.92;;;24.42;;
40993;SDS011;26722;43.212;27.932;2023-03-21T10:04:02;53.60;;;23.98;;
40993;SDS011;26722;43.212;27.932;2023-03-21T10:06:30;57.03;;;22.90;;
40993;SDS011;26722;43.212;27.932;2023-03-21T10:11:31;57.65;;;25.35;;
40993;SDS011;26722;43.212;27.932;2023-03-21T10:14:12;61.45;;;25.05;;
40993;SDS011;26722;43.212;27.932;2023-03-21T10:16:43;60.15;;;24.75;;
40993;SDS011;26722;43.212;27.932;2023-03-21T10:19:13;63.15;;;23.88;;
40993;SDS011;26722;43.212;27.932;2023-03-21T10:21:42;57.80;;;23.63;;
40993;SDS011;26722;43.212;27.932;2023-03-21T10:24:20;48.50;;;23.00;;
40993;SDS011;26722;43.212;27.932;2023-03-21T10:26:49;54.10;;;24.02;;
40993;SDS011;26722;43.212;27.932;2023-03-21T10:29:16;65.32;;;24.83;;
40993;SDS011;26722;43.212;27.932;2023-03-21T10:31:46;58.88;;;22.10;;
40993;SDS011;26722;43.212;27.932;2023-03-21T10:36:44;56.92;;;22.60;;
40993;SDS011;26722;43.212;27.932;2023-03-21T10:39:17;62.20;;;23.60;;
40993;SDS011;26722;43.212;27.932;2023-03-21T10:41:46;58.10;;;21.70;;
40993;SDS011;26722;43.212;27.932;2023-03-21T10:44:13;62.85;;;22.58;;
40993;SDS011;26722;43.212;27.932;2023-03-21T10:46:55;59.58;;;22.55;;
40993;SDS011;26722;43.212;27.932;2023-03-21T10:49:22;61.40;;;23.15;;
40993;SDS011;26722;43.212;27.932;2023-03-21T10:51:50;51.97;;;20.77;;
40993;SDS011;26722;43.212;27.932;2023-03-21T10:54:21;47.33;;;19.90;;
40993;SDS011;26722;43.212;27.932;2023-03-21T10:59:25;58.78;;;20.40;;
40993;SDS011;26722;43.212;27.932;2023-03-21T11:01:54;43.08;;;20.10;;
40993;SDS011;26722;43.212;27.932;2023-03-21T11:04:26;55.05;;;21.88;;
40993;SDS011;26722;43.212;27.932;2023-03-21T11:06:55;51.42;;;22.38;;
40993;SDS011;26722;43.212;27.932;2023-03-21T11:09:24;49.95;;;19.92;;
40993;SDS011;26722;43.212;27.932;2023-03-21T11:12:13;47.58;;;21.25;;
40993;SDS011;26722;43.212;27.932;2023-03-21T11:14:42;53.88;;;20.63;;
40993;SDS011;26722;43.212;27.932;2023-03-21T11:19:56;43.83;;;21.08;;
40993;SDS011;26722;43.212;27.932;2023-03-21T11:22:25;53.75;;;21.40;;
40993;SDS011;26722;43.212;27.932;2023-03-21T11:25:00;54.15;;;21.00;;
40993;SDS011;26722;43.212;27.932;2023-03-21T11:27:27;61.42;;;21.98;;
40993;SDS011;26722;43.212;27.932;2023-03-21T11:29:54;62.90;;;22.08;;
40993;SDS011;26722;43.212;27.932;2023-03-21T11:32:25;57.03;;;21.73;;
40993;SDS011;26722;43.212;27.932;2023-03-21T11:45:21;68.07;;;21.85;;
40993;SDS011;26722;43.212;27.932;2023-03-21T11:47:47;72.82;;;22.42;;
40993;SDS011;26722;43.212;27.932;2023-03-21T11:50:16;70.78;;;23.52;;
40993;SDS011;26722;43.212;27.932;2023-03-21T11:52:43;57.15;;;22.25;;
40993;SDS011;26722;43.212;27.932;2023-03-21T11:55:31;55.08;;;21.13;;
40993;SDS011;26722;43.212;27.932;2023-03-21T11:58:13;52.42;;;20.45;;
40993;SDS011;26722;43.212;27.932;2023-03-21T12:11:31;62.58;;;19.63;;
40993;SDS011;26722;43.212;27.932;2023-03-21T12:14:14;63.13;;;21.42;;
40993;SDS011;26722;43.212;27.932;2023-03-21T12:25:23;49.75;;;19.02;;
40993;SDS011;26722;43.212;27.932;2023-03-21T12:44:21;49.15;;;17.23;;
40993;SDS011;26722;43.212;27.932;2023-03-21T12:46:54;70.95;;;19.45;;
40993;SDS011;26722;43.212;27.932;2023-03-21T12:51:54;69.82;;;20.13;;
40993;SDS011;26722;43.212;27.932;2023-03-21T12:54:30;59.15;;;18.98;;
40993;SDS011;26722;43.212;27.932;2023-03-21T13:02:16;72.75;;;20.90;;
40993;SDS011;26722;43.212;27.932;2023-03-21T13:07:28;72.10;;;20.90;;
40993;SDS011;26722;43.212;27.932;2023-03-21T13:10:00;78.53;;;20.77;;
40993;SDS011;26722;43.212;27.932;2023-03-21T13:12:38;62.42;;;21.70;;
40993;SDS011;26722;43.212;27.932;2023-03-21T13:20:45;69.72;;;24.10;;
40993;SDS011;26722;43.212;27.932;2023-03-21T13:23:14;64.50;;;23.58;;
40993;SDS011;26722;43.212;27.932;2023-03-21T13:25:46;71.03;;;24.23;;
40993;SDS011;26722;43.212;27.932;2023-03-21T13:28:32;78.53;;;25.30;;
40993;SDS011;26722;43.212;27.932;2023-03-21T13:33:44;76.88;;;27.25;;
40993;SDS011;26722;43.212;27.932;2023-03-21T13:36:13;74.43;;;29.95;;
40993;SDS011;26722;43.212;27.932;2023-03-21T13:38:43;83.72;;;30.00;;
40993;SDS011;26722;43.212;27.932;2023-03-21T13:41:17;80.78;;;31.13;;
40993;SDS011;26722;43.212;27.932;2023-03-21T13:43:53;85.07;;;30.77;;
40993;SDS011;26722;43.212;27.932;2023-03-21T13:51:40;81.05;;;31.17;;
40993;SDS011;26722;43.212;27.932;2023-03-21T13:59:11;72.72;;;30.98;;
40993;SDS011;26722;43.212;27.932;2023-03-21T14:04:55;82.53;;;30.63;;
40993;SDS011;26722;43.212;27.932;2023-03-21T14:07:31;68.20;;;30.67;;
40993;SDS011;26722;43.212;27.932;2023-03-21T14:10:01;65.90;;;32.15;;
40993;SDS011;26722;43.212;27.932;2023-03-21T14:12:34;67.20;;;30.42;;
40993;SDS011;26722;43.212;27.932;2023-03-21T14:15:04;67.53;;;30.70;;
40993;SDS011;26722;43.212;27.932;2023-03-21T14:17:31;60.05;;;30.48;;
40993;SDS011;26722;43.212;27.932;2023-03-21T14:20:40;62.88;;;30.52;;
40993;SDS011;26722;43.212;27.932;2023-03-21T14:22:56;66.20;;;30.85;;
40993;SDS011;26722;43.212;27.932;2023-03-21T14:25:24;62.53;;;30.70;;
40993;SDS011;26722;43.212;27.932;2023-03-21T14:27:58;69.60;;;31.25;;
40993;SDS011;26722;43.212;27.932;2023-03-21T14:33:10;64.85;;;29.40;;
40993;SDS011;26722;43.212;27.932;2023-03-21T14:35:38;61.47;;;29.10;;
40993;SDS011;26722;43.212;27.932;2023-03-21T14:38:06;68.88;;;30.92;;
40993;SDS011;26722;43.212;27.932;2023-03-21T14:40:45;66.32;;;29.83;;
40993;SDS011;26722;43.212;27.932;2023-03-21T14:43:13;72.32;;;36.20;;
40993;SDS011;26722;43.212;27.932;2023-03-21T14:45:38;66.30;;;31.20;;
40993;SDS011;26722;43.212;27.932;2023-03-21T14:48:06;69.18;;;35.38;;
40993;SDS011;26722;43.212;27.932;2023-03-21T14:53:01;82.40;;;35.33;;
40993;SDS011;26722;43.212;27.932;2023-03-21T14:55:27;71.43;;;36.42;;
40993;SDS011;26722;43.212;27.932;2023-03-21T14:57:53;67.63;;;32.95;;
40993;SDS011;26722;43.212;27.932;2023-03-21T15:00:27;75.63;;;33.03;;
40993;SDS011;26722;43.212;27.932;2023-03-21T15:02:56;76.53;;;35.72;;
40993;SDS011;26722;43.212;27.932;2023-03-21T15:07:56;69.65;;;31.33;;
40993;SDS011;26722;43.212;27.932;2023-03-21T15:10:45;63.13;;;30.65;;
40993;SDS011;26722;43.212;27.932;2023-03-21T15:13:19;62.30;;;29.20;;
40993;SDS011;26722;43.212;27.932;2023-03-21T15:15:49;70.57;;;32.17;;
40993;SDS011;26722;43.212;27.932;2023-03-21T15:18:17;64.78;;;32.08;;
40993;SDS011;26722;43.212;27.932;2023-03-21T15:20:49;64.80;;;33.35;;
40993;SDS011;26722;43.212;27.932;2023-03-21T15:23:20;67.47;;;32.35;;
40993;SDS011;26722;43.212;27.932;2023-03-21T15:26:13;61.60;;;29.65;;
40993;SDS011;26722;43.212;27.932;2023-03-21T15:28:41;63.00;;;29.90;;
40993;SDS011;26722;43.212;27.932;2023-03-21T15:31:17;60.85;;;32.22;;
40993;SDS011;26722;43.212;27.932;2023-03-21T15:33:45;79.32;;;35.22;;
40993;SDS011;26722;43.212;27.932;2023-03-21T15:36:17;58.92;;;30.65;;
40993;SDS011;26722;43.212;27.932;2023-03-21T15:38:45;64.90;;;31.20;;
40993;SDS011;26722;43.212;27.932;2023-03-21T15:43:59;73.57;;;34.92;;
40993;SDS011;26722;43.212;27.932;2023-03-21T15:47:09;67.63;;;35.08;;
40993;SDS011;26722;43.212;27.932;2023-03-21T15:49:32;76.88;;;36.15;;
40993;SDS011;26722;43.212;27.932;2023-03-21T15:54:44;78.60;;;35.15;;
40993;SDS011;26722;43.212;27.932;2023-03-21T15:57:23;73.70;;;34.42;;
40993;SDS011;26722;43.212;27.932;2023-03-21T16:02:42;62.60;;;30.98;;
40993;SDS011;26722;43.212;27.932;2023-03-21T16:05:18;72.00;;;33.25;;
40993;SDS011;26722;43.212;27.932;2023-03-21T16:07:48;65.63;;;33.25;;
40993;SDS011;26722;43.212;27.932;2023-03-21T16:10:23;64.63;;;32.38;;
40993;SDS011;26722;43.212;27.932;2023-03-21T16:12:52;58.97;;;30.33;;
40993;SDS011;26722;43.212;27.932;2023-03-21T16:15:18;64.75;;;30.40;;
40993;SDS011;26722;43.212;27.932;2023-03-21T16:17:53;62.58;;;31.23;;
40993;SDS011;26722;43.212;27.932;2023-03-21T16:20:22;62.13;;;31.55;;
40993;SDS011;26722;43.212;27.932;2023-03-21T16:22:50;66.32;;;31.02;;
40993;SDS011;26722;43.212;27.932;2023-03-21T16:25:16;62.33;;;30.92;;
40993;SDS011;26722;43.212;27.932;2023-03-21T16:27:42;51.50;;;28.67;;
40993;SDS011;26722;43.212;27.932;2023-03-21T16:30:10;55.63;;;27.40;;
40993;SDS011;26722;43.212;27.932;2023-03-21T16:32:37;65.00;;;27.40;;
40993;SDS011;26722;43.212;27.932;2023-03-21T16:35:03;58.75;;;28.40;;
40993;SDS011;26722;43.212;27.932;2023-03-21T16:37:29;58.30;;;26.27;;
40993;SDS011;26722;43.212;27.932;2023-03-21T16:39:54;56.95;;;27.75;;
40993;SDS011;26722;43.212;27.932;2023-03-21T16:42:20;53.30;;;27.30;;
40993;SDS011;26722;43.212;27.932;2023-03-21T16:44:45;50.58;;;24.27;;
40993;SDS011;26722;43.212;27.932;2023-03-21T16:47:18;65.65;;;26.50;;
40993;SDS011;26722;43.212;27.932;2023-03-21T16:49:45;58.28;;;27.15;;